sensor_id;sensor_type;location;lat;lon;timestamp;temperature;humidity
569;DHT22;269;48.884;9.192;2023-01-08T00:02:08;5.90;99.90
569;DHT22;269;48.884;9.192;2023-01-08T00:04:36;5.90;99.90
569;DHT22;269;48.884;9.192;2023-01-08T00:07:03;5.90;99.90
569;DHT22;269;48.884;9.192;2023-01-08T00:09:30;5.90;99.90
569;DHT22;269;48.884;9.192;2023-01-08T00:11:57;5.90;99.90
569;DHT22;269;48.884;9.192;2023-01-08T00:14:24;5.90;99.90
569;DHT22;269;48.884;9.192;2023-01-08T00:16:52;5.90;99.90
569;DHT22;269;48.884;9.192;2023-01-08T00:19:19;5.90;99.90
569;DHT22;269;48.884;9.192;2023-01-08T00:21:46;5.90;99.90
569;DHT22;269;48.884;9.192;2023-01-08T00:24:13;5.90;99.90
569;DHT22;269;48.884;9.192;2023-01-08T00:26:40;5.90;99.90
569;DHT22;269;48.884;9.192;2023-01-08T00:29:07;5.90;99.90
569;DHT22;269;48.884;9.192;2023-01-08T00:31:34;5.90;99.90
569;DHT22;269;48.884;9.192;2023-01-08T00:34:03;5.90;99.90
569;DHT22;269;48.884;9.192;2023-01-08T00:36:30;5.80;99.90
569;DHT22;269;48.884;9.192;2023-01-08T00:38:58;5.80;99.90
569;DHT22;269;48.884;9.192;2023-01-08T00:41:25;5.80;99.90
569;DHT22;269;48.884;9.192;2023-01-08T00:43:52;5.80;99.90
569;DHT22;269;48.884;9.192;2023-01-08T00:46:19;5.70;99.90
569;DHT22;269;48.884;9.192;2023-01-08T00:48:46;5.70;99.90
569;DHT22;269;48.884;9.192;2023-01-08T00:51:14;5.80;99.90
569;DHT22;269;48.884;9.192;2023-01-08T00:53:41;5.80;99.90
569;DHT22;269;48.884;9.192;2023-01-08T00:56:09;5.80;99.90
569;DHT22;269;48.884;9.192;2023-01-08T00:58:36;5.90;99.90
569;DHT22;269;48.884;9.192;2023-01-08T01:01:08;5.90;99.90
569;DHT22;269;48.884;9.192;2023-01-08T01:03:54;6.00;99.90
569;DHT22;269;48.884;9.192;2023-01-08T01:06:22;6.00;99.90
569;DHT22;269;48.884;9.192;2023-01-08T01:08:49;6.00;99.90
569;DHT22;269;48.884;9.192;2023-01-08T01:11:19;6.00;99.90
569;DHT22;269;48.884;9.192;2023-01-08T01:13:47;6.00;99.90
569;DHT22;269;48.884;9.192;2023-01-08T01:16:14;6.00;99.90
569;DHT22;269;48.884;9.192;2023-01-08T01:18:41;6.00;99.90
569;DHT22;269;48.884;9.192;2023-01-08T01:21:10;6.00;99.90
569;DHT22;269;48.884;9.192;2023-01-08T01:23:40;6.00;99.90
569;DHT22;269;48.884;9.192;2023-01-08T01:26:14;6.10;99.90
569;DHT22;269;48.884;9.192;2023-01-08T01:28:41;6.00;99.90
569;DHT22;269;48.884;9.192;2023-01-08T01:31:10;6.00;99.90
569;DHT22;269;48.884;9.192;2023-01-08T01:33:38;6.00;99.90
569;DHT22;269;48.884;9.192;2023-01-08T01:36:05;6.00;99.90
569;DHT22;269;48.884;9.192;2023-01-08T01:38:32;6.00;99.90
569;DHT22;269;48.884;9.192;2023-01-08T01:41:01;6.00;99.90
569;DHT22;269;48.884;9.192;2023-01-08T01:43:37;6.10;99.90
569;DHT22;269;48.884;9.192;2023-01-08T01:46:13;6.10;99.90
569;DHT22;269;48.884;9.192;2023-01-08T01:48:42;6.40;99.90
569;DHT22;269;48.884;9.192;2023-01-08T01:51:09;6.10;99.90
569;DHT22;269;48.884;9.192;2023-01-08T01:53:36;6.10;99.90
569;DHT22;269;48.884;9.192;2023-01-08T01:56:08;6.10;99.90
569;DHT22;269;48.884;9.192;2023-01-08T01:58:35;6.00;99.90
569;DHT22;269;48.884;9.192;2023-01-08T02:01:04;6.00;99.90
569;DHT22;269;48.884;9.192;2023-01-08T02:03:34;6.00;99.90
569;DHT22;269;48.884;9.192;2023-01-08T02:06:13;6.10;99.90
569;DHT22;269;48.884;9.192;2023-01-08T02:08:53;6.10;99.90
569;DHT22;269;48.884;9.192;2023-01-08T02:11:28;6.10;99.90
569;DHT22;269;48.884;9.192;2023-01-08T02:14:01;6.10;99.90
569;DHT22;269;48.884;9.192;2023-01-08T02:16:35;6.10;99.90
569;DHT22;269;48.884;9.192;2023-01-08T02:19:15;6.10;99.90
569;DHT22;269;48.884;9.192;2023-01-08T02:21:52;6.20;99.90
569;DHT22;269;48.884;9.192;2023-01-08T02:24:32;6.20;99.90
569;DHT22;269;48.884;9.192;2023-01-08T02:27:07;6.10;99.90
569;DHT22;269;48.884;9.192;2023-01-08T02:29:35;6.10;99.90
569;DHT22;269;48.884;9.192;2023-01-08T02:32:02;6.00;99.90
569;DHT22;269;48.884;9.192;2023-01-08T02:34:29;6.00;99.90
569;DHT22;269;48.884;9.192;2023-01-08T02:36:58;5.90;99.90
569;DHT22;269;48.884;9.192;2023-01-08T02:39:50;5.90;99.90
569;DHT22;269;48.884;9.192;2023-01-08T02:42:26;5.90;99.90
569;DHT22;269;48.884;9.192;2023-01-08T02:44:58;5.80;99.90
569;DHT22;269;48.884;9.192;2023-01-08T02:47:30;5.90;99.90
569;DHT22;269;48.884;9.192;2023-01-08T02:50:04;5.80;99.90
569;DHT22;269;48.884;9.192;2023-01-08T02:52:38;5.80;99.90
569;DHT22;269;48.884;9.192;2023-01-08T02:55:07;5.80;99.90
569;DHT22;269;48.884;9.192;2023-01-08T02:57:37;5.80;99.90
569;DHT22;269;48.884;9.192;2023-01-08T03:00:05;5.80;99.90
569;DHT22;269;48.884;9.192;2023-01-08T03:02:34;5.90;99.90
569;DHT22;269;48.884;9.192;2023-01-08T03:05:08;5.90;99.90
569;DHT22;269;48.884;9.192;2023-01-08T03:07:38;5.90;99.90
569;DHT22;269;48.884;9.192;2023-01-08T03:10:07;6.00;99.90
569;DHT22;269;48.884;9.192;2023-01-08T03:12:44;6.00;99.90
569;DHT22;269;48.884;9.192;2023-01-08T03:15:20;6.00;99.90
569;DHT22;269;48.884;9.192;2023-01-08T03:17:50;6.10;99.90
569;DHT22;269;48.884;9.192;2023-01-08T03:20:21;6.10;99.90
569;DHT22;269;48.884;9.192;2023-01-08T03:22:52;6.10;99.90
569;DHT22;269;48.884;9.192;2023-01-08T03:25:22;6.10;99.90
569;DHT22;269;48.884;9.192;2023-01-08T03:27:53;6.10;99.90
569;DHT22;269;48.884;9.192;2023-01-08T03:30:22;6.10;99.90
569;DHT22;269;48.884;9.192;2023-01-08T03:32:50;6.10;99.90
569;DHT22;269;48.884;9.192;2023-01-08T03:35:21;6.10;99.90
569;DHT22;269;48.884;9.192;2023-01-08T03:37:54;6.20;99.90
569;DHT22;269;48.884;9.192;2023-01-08T03:40:25;6.20;99.90
569;DHT22;269;48.884;9.192;2023-01-08T03:42:56;6.20;99.90
569;DHT22;269;48.884;9.192;2023-01-08T03:45:24;6.20;99.90
569;DHT22;269;48.884;9.192;2023-01-08T03:47:53;6.20;99.90
569;DHT22;269;48.884;9.192;2023-01-08T03:50:22;6.20;99.90
569;DHT22;269;48.884;9.192;2023-01-08T03:52:51;6.20;99.90
569;DHT22;269;48.884;9.192;2023-01-08T03:55:19;6.20;99.90
569;DHT22;269;48.884;9.192;2023-01-08T03:57:46;6.20;99.90
569;DHT22;269;48.884;9.192;2023-01-08T04:00:15;6.20;99.90
569;DHT22;269;48.884;9.192;2023-01-08T04:02:42;6.20;99.90
569;DHT22;269;48.884;9.192;2023-01-08T04:05:09;6.20;99.90
569;DHT22;269;48.884;9.192;2023-01-08T04:07:36;6.20;99.90
569;DHT22;269;48.884;9.192;2023-01-08T04:10:04;6.20;99.90
569;DHT22;269;48.884;9.192;2023-01-08T04:12:31;6.20;99.90
569;DHT22;269;48.884;9.192;2023-01-08T04:14:58;6.20;99.90
569;DHT22;269;48.884;9.192;2023-01-08T04:17:26;6.20;99.90
569;DHT22;269;48.884;9.192;2023-01-08T04:19:53;6.20;99.90
569;DHT22;269;48.884;9.192;2023-01-08T04:22:20;6.10;99.90
569;DHT22;269;48.884;9.192;2023-01-08T04:24:47;6.20;99.90
569;DHT22;269;48.884;9.192;2023-01-08T04:27:14;6.20;99.90
569;DHT22;269;48.884;9.192;2023-01-08T04:29:41;6.20;99.90
569;DHT22;269;48.884;9.192;2023-01-08T04:32:08;6.20;99.90
569;DHT22;269;48.884;9.192;2023-01-08T04:34:36;6.30;99.90
569;DHT22;269;48.884;9.192;2023-01-08T04:37:03;6.30;99.90
569;DHT22;269;48.884;9.192;2023-01-08T04:39:30;6.20;99.90
569;DHT22;269;48.884;9.192;2023-01-08T04:41:57;6.30;99.90
569;DHT22;269;48.884;9.192;2023-01-08T04:44:24;6.30;99.90
569;DHT22;269;48.884;9.192;2023-01-08T04:46:51;6.30;99.90
569;DHT22;269;48.884;9.192;2023-01-08T04:49:19;6.40;99.90
569;DHT22;269;48.884;9.192;2023-01-08T04:51:47;6.40;99.90
569;DHT22;269;48.884;9.192;2023-01-08T04:54:14;6.50;99.90
569;DHT22;269;48.884;9.192;2023-01-08T04:56:41;6.60;99.90
569;DHT22;269;48.884;9.192;2023-01-08T04:59:08;6.70;99.90
569;DHT22;269;48.884;9.192;2023-01-08T05:01:35;6.90;99.90
569;DHT22;269;48.884;9.192;2023-01-08T05:04:03;7.10;99.90
569;DHT22;269;48.884;9.192;2023-01-08T05:06:31;7.30;99.90
569;DHT22;269;48.884;9.192;2023-01-08T05:09:00;7.50;99.90
569;DHT22;269;48.884;9.192;2023-01-08T05:11:27;7.80;99.90
569;DHT22;269;48.884;9.192;2023-01-08T05:13:54;8.40;99.90
569;DHT22;269;48.884;9.192;2023-01-08T05:16:21;8.80;99.90
569;DHT22;269;48.884;9.192;2023-01-08T05:18:49;9.20;99.90
569;DHT22;269;48.884;9.192;2023-01-08T05:21:16;9.40;99.90
569;DHT22;269;48.884;9.192;2023-01-08T05:23:45;9.50;99.90
569;DHT22;269;48.884;9.192;2023-01-08T05:26:14;9.60;99.90
569;DHT22;269;48.884;9.192;2023-01-08T05:28:42;9.70;99.90
569;DHT22;269;48.884;9.192;2023-01-08T05:31:09;9.70;99.90
569;DHT22;269;48.884;9.192;2023-01-08T05:33:37;9.80;99.90
569;DHT22;269;48.884;9.192;2023-01-08T05:36:05;9.80;99.90
569;DHT22;269;48.884;9.192;2023-01-08T05:38:32;9.90;99.90
569;DHT22;269;48.884;9.192;2023-01-08T05:41:00;9.90;99.90
569;DHT22;269;48.884;9.192;2023-01-08T05:43:28;9.80;99.90
569;DHT22;269;48.884;9.192;2023-01-08T05:45:57;9.80;99.90
569;DHT22;269;48.884;9.192;2023-01-08T05:48:24;9.60;99.90
569;DHT22;269;48.884;9.192;2023-01-08T05:50:51;9.50;99.90
569;DHT22;269;48.884;9.192;2023-01-08T05:53:18;9.40;99.90
569;DHT22;269;48.884;9.192;2023-01-08T05:55:45;9.40;99.90
569;DHT22;269;48.884;9.192;2023-01-08T05:58:12;9.30;99.90
569;DHT22;269;48.884;9.192;2023-01-08T06:00:45;9.20;99.90
569;DHT22;269;48.884;9.192;2023-01-08T06:03:12;9.10;99.90
569;DHT22;269;48.884;9.192;2023-01-08T06:05:39;9.00;99.90
569;DHT22;269;48.884;9.192;2023-01-08T06:08:06;8.90;99.90
569;DHT22;269;48.884;9.192;2023-01-08T06:10:33;8.90;99.90
569;DHT22;269;48.884;9.192;2023-01-08T06:13:00;8.80;99.90
569;DHT22;269;48.884;9.192;2023-01-08T06:15:27;8.80;99.90
569;DHT22;269;48.884;9.192;2023-01-08T06:17:55;8.70;99.90
569;DHT22;269;48.884;9.192;2023-01-08T06:20:22;8.70;99.90
569;DHT22;269;48.884;9.192;2023-01-08T06:22:49;8.80;99.90
569;DHT22;269;48.884;9.192;2023-01-08T06:25:19;8.80;99.90
569;DHT22;269;48.884;9.192;2023-01-08T06:27:49;8.80;99.90
569;DHT22;269;48.884;9.192;2023-01-08T06:30:16;8.80;99.90
569;DHT22;269;48.884;9.192;2023-01-08T06:32:44;8.80;99.90
569;DHT22;269;48.884;9.192;2023-01-08T06:35:12;8.80;99.90
569;DHT22;269;48.884;9.192;2023-01-08T06:37:39;8.90;99.90
569;DHT22;269;48.884;9.192;2023-01-08T06:40:07;8.90;99.90
569;DHT22;269;48.884;9.192;2023-01-08T06:42:34;8.90;99.90
569;DHT22;269;48.884;9.192;2023-01-08T06:45:01;9.10;99.90
569;DHT22;269;48.884;9.192;2023-01-08T06:47:28;9.10;99.90
569;DHT22;269;48.884;9.192;2023-01-08T06:49:55;9.20;99.90
569;DHT22;269;48.884;9.192;2023-01-08T06:52:25;9.20;99.90
569;DHT22;269;48.884;9.192;2023-01-08T06:54:52;9.30;99.90
569;DHT22;269;48.884;9.192;2023-01-08T06:57:19;9.30;99.90
569;DHT22;269;48.884;9.192;2023-01-08T06:59:46;9.30;99.90
569;DHT22;269;48.884;9.192;2023-01-08T07:02:14;9.40;99.90
569;DHT22;269;48.884;9.192;2023-01-08T07:04:41;9.50;99.90
569;DHT22;269;48.884;9.192;2023-01-08T07:07:10;9.60;99.90
569;DHT22;269;48.884;9.192;2023-01-08T07:09:39;9.60;99.90
569;DHT22;269;48.884;9.192;2023-01-08T07:12:10;9.60;99.90
569;DHT22;269;48.884;9.192;2023-01-08T07:14:37;9.70;99.90
569;DHT22;269;48.884;9.192;2023-01-08T07:17:04;9.70;99.90
569;DHT22;269;48.884;9.192;2023-01-08T07:19:31;9.70;99.90
569;DHT22;269;48.884;9.192;2023-01-08T07:21:58;9.70;99.90
569;DHT22;269;48.884;9.192;2023-01-08T07:24:25;9.70;99.90
569;DHT22;269;48.884;9.192;2023-01-08T07:26:54;9.70;99.90
569;DHT22;269;48.884;9.192;2023-01-08T07:29:20;9.70;99.90
569;DHT22;269;48.884;9.192;2023-01-08T07:31:48;9.70;99.90
569;DHT22;269;48.884;9.192;2023-01-08T07:34:15;9.70;99.90
569;DHT22;269;48.884;9.192;2023-01-08T07:36:42;9.70;99.90
569;DHT22;269;48.884;9.192;2023-01-08T07:39:09;9.70;99.90
569;DHT22;269;48.884;9.192;2023-01-08T07:41:36;9.70;99.90
569;DHT22;269;48.884;9.192;2023-01-08T07:44:04;9.70;99.90
569;DHT22;269;48.884;9.192;2023-01-08T07:46:31;9.70;99.90
569;DHT22;269;48.884;9.192;2023-01-08T07:48:58;9.50;99.90
569;DHT22;269;48.884;9.192;2023-01-08T07:51:26;9.40;99.90
569;DHT22;269;48.884;9.192;2023-01-08T07:53:53;9.40;99.90
569;DHT22;269;48.884;9.192;2023-01-08T07:56:21;9.30;99.90
569;DHT22;269;48.884;9.192;2023-01-08T07:58:48;9.30;99.90
569;DHT22;269;48.884;9.192;2023-01-08T08:01:17;9.30;99.90
569;DHT22;269;48.884;9.192;2023-01-08T08:03:44;9.30;99.90
569;DHT22;269;48.884;9.192;2023-01-08T08:06:11;9.20;99.90
569;DHT22;269;48.884;9.192;2023-01-08T08:08:38;9.20;99.90
569;DHT22;269;48.884;9.192;2023-01-08T08:11:05;9.10;99.90
569;DHT22;269;48.884;9.192;2023-01-08T08:13:32;9.10;99.90
569;DHT22;269;48.884;9.192;2023-01-08T08:16:03;9.10;99.90
569;DHT22;269;48.884;9.192;2023-01-08T08:18:31;9.00;99.90
569;DHT22;269;48.884;9.192;2023-01-08T08:20:58;9.00;99.90
569;DHT22;269;48.884;9.192;2023-01-08T08:23:25;8.90;99.90
569;DHT22;269;48.884;9.192;2023-01-08T08:25:52;8.90;99.90
569;DHT22;269;48.884;9.192;2023-01-08T08:28:19;8.90;99.90
569;DHT22;269;48.884;9.192;2023-01-08T08:30:46;8.80;99.90
569;DHT22;269;48.884;9.192;2023-01-08T08:33:13;8.80;99.90
569;DHT22;269;48.884;9.192;2023-01-08T08:35:47;8.80;99.90
569;DHT22;269;48.884;9.192;2023-01-08T08:38:15;8.80;99.90
569;DHT22;269;48.884;9.192;2023-01-08T08:40:42;8.80;99.90
569;DHT22;269;48.884;9.192;2023-01-08T08:43:09;8.80;99.90
569;DHT22;269;48.884;9.192;2023-01-08T08:45:36;8.80;99.90
569;DHT22;269;48.884;9.192;2023-01-08T08:48:05;8.80;99.90
569;DHT22;269;48.884;9.192;2023-01-08T08:50:32;8.80;99.90
569;DHT22;269;48.884;9.192;2023-01-08T08:53:01;8.80;99.90
569;DHT22;269;48.884;9.192;2023-01-08T08:55:28;8.80;99.90
569;DHT22;269;48.884;9.192;2023-01-08T08:58:01;8.80;99.90
569;DHT22;269;48.884;9.192;2023-01-08T09:00:29;8.70;99.90
569;DHT22;269;48.884;9.192;2023-01-08T09:02:57;8.70;99.90
569;DHT22;269;48.884;9.192;2023-01-08T09:05:24;8.70;99.90
569;DHT22;269;48.884;9.192;2023-01-08T09:07:51;8.80;99.90
569;DHT22;269;48.884;9.192;2023-01-08T09:10:20;8.80;99.90
569;DHT22;269;48.884;9.192;2023-01-08T09:12:48;8.80;99.90
569;DHT22;269;48.884;9.192;2023-01-08T09:15:15;8.90;99.90
569;DHT22;269;48.884;9.192;2023-01-08T09:17:42;8.90;99.90
569;DHT22;269;48.884;9.192;2023-01-08T09:20:10;8.90;99.90
569;DHT22;269;48.884;9.192;2023-01-08T09:22:37;9.00;99.90
569;DHT22;269;48.884;9.192;2023-01-08T09:25:05;9.00;99.90
569;DHT22;269;48.884;9.192;2023-01-08T09:27:33;9.10;99.90
569;DHT22;269;48.884;9.192;2023-01-08T09:30:00;9.10;99.90
569;DHT22;269;48.884;9.192;2023-01-08T09:32:27;9.20;99.90
569;DHT22;269;48.884;9.192;2023-01-08T09:34:54;9.20;99.90
569;DHT22;269;48.884;9.192;2023-01-08T09:37:21;9.20;99.90
569;DHT22;269;48.884;9.192;2023-01-08T09:39:49;9.20;99.90
569;DHT22;269;48.884;9.192;2023-01-08T09:42:20;9.20;99.90
569;DHT22;269;48.884;9.192;2023-01-08T09:44:51;9.20;99.90
569;DHT22;269;48.884;9.192;2023-01-08T09:47:23;9.30;99.90
569;DHT22;269;48.884;9.192;2023-01-08T09:49:51;9.30;99.90
569;DHT22;269;48.884;9.192;2023-01-08T09:52:20;9.30;99.90
569;DHT22;269;48.884;9.192;2023-01-08T09:54:47;9.30;99.90
569;DHT22;269;48.884;9.192;2023-01-08T09:57:16;9.40;99.90
569;DHT22;269;48.884;9.192;2023-01-08T09:59:45;9.40;99.90
569;DHT22;269;48.884;9.192;2023-01-08T10:02:15;9.40;99.90
569;DHT22;269;48.884;9.192;2023-01-08T10:04:43;9.40;99.90
569;DHT22;269;48.884;9.192;2023-01-08T10:07:15;9.40;99.90
569;DHT22;269;48.884;9.192;2023-01-08T10:09:46;9.50;99.90
569;DHT22;269;48.884;9.192;2023-01-08T10:12:25;9.50;99.90
569;DHT22;269;48.884;9.192;2023-01-08T10:14:54;9.50;99.90
569;DHT22;269;48.884;9.192;2023-01-08T10:17:29;9.50;99.90
569;DHT22;269;48.884;9.192;2023-01-08T10:20:00;9.50;99.90
569;DHT22;269;48.884;9.192;2023-01-08T10:22:31;9.60;99.90
569;DHT22;269;48.884;9.192;2023-01-08T10:25:05;9.60;99.90
569;DHT22;269;48.884;9.192;2023-01-08T10:27:43;9.60;99.90
569;DHT22;269;48.884;9.192;2023-01-08T10:30:14;9.60;99.90
569;DHT22;269;48.884;9.192;2023-01-08T10:32:49;9.70;99.90
569;DHT22;269;48.884;9.192;2023-01-08T10:35:19;9.70;99.90
569;DHT22;269;48.884;9.192;2023-01-08T10:37:47;9.70;99.90
569;DHT22;269;48.884;9.192;2023-01-08T10:40:25;9.70;99.90
569;DHT22;269;48.884;9.192;2023-01-08T10:42:55;9.80;99.90
569;DHT22;269;48.884;9.192;2023-01-08T10:45:24;9.80;99.90
569;DHT22;269;48.884;9.192;2023-01-08T10:47:55;9.90;99.90
569;DHT22;269;48.884;9.192;2023-01-08T10:50:26;9.90;99.90
569;DHT22;269;48.884;9.192;2023-01-08T10:52:55;9.90;99.90
569;DHT22;269;48.884;9.192;2023-01-08T10:55:25;9.90;99.90
569;DHT22;269;48.884;9.192;2023-01-08T10:57:55;9.90;99.90
569;DHT22;269;48.884;9.192;2023-01-08T11:00:24;9.90;99.90
569;DHT22;269;48.884;9.192;2023-01-08T11:02:53;9.90;99.90
569;DHT22;269;48.884;9.192;2023-01-08T11:05:28;9.90;99.90
569;DHT22;269;48.884;9.192;2023-01-08T11:07:57;10.00;99.90
569;DHT22;269;48.884;9.192;2023-01-08T11:10:26;10.00;99.90
569;DHT22;269;48.884;9.192;2023-01-08T11:12:57;10.00;99.90
569;DHT22;269;48.884;9.192;2023-01-08T11:15:30;10.10;99.90
569;DHT22;269;48.884;9.192;2023-01-08T11:18:15;10.10;99.90
569;DHT22;269;48.884;9.192;2023-01-08T11:20:44;10.20;99.90
569;DHT22;269;48.884;9.192;2023-01-08T11:23:16;10.20;99.90
569;DHT22;269;48.884;9.192;2023-01-08T11:25:49;10.20;99.90
569;DHT22;269;48.884;9.192;2023-01-08T11:28:26;10.20;99.90
569;DHT22;269;48.884;9.192;2023-01-08T11:31:00;10.20;99.90
569;DHT22;269;48.884;9.192;2023-01-08T11:33:31;10.30;99.90
569;DHT22;269;48.884;9.192;2023-01-08T11:36:06;10.30;99.90
569;DHT22;269;48.884;9.192;2023-01-08T11:38:36;10.30;99.90
569;DHT22;269;48.884;9.192;2023-01-08T11:41:12;10.40;99.90
569;DHT22;269;48.884;9.192;2023-01-08T11:43:57;10.40;99.90
569;DHT22;269;48.884;9.192;2023-01-08T11:46:32;10.50;99.90
569;DHT22;269;48.884;9.192;2023-01-08T11:49:27;10.50;99.90
569;DHT22;269;48.884;9.192;2023-01-08T11:52:02;10.50;99.90
569;DHT22;269;48.884;9.192;2023-01-08T11:54:49;10.60;99.90
569;DHT22;269;48.884;9.192;2023-01-08T11:57:27;10.60;99.90
569;DHT22;269;48.884;9.192;2023-01-08T12:00:08;10.60;99.90
569;DHT22;269;48.884;9.192;2023-01-08T12:02:50;10.60;99.90
569;DHT22;269;48.884;9.192;2023-01-08T12:05:25;10.60;99.90
569;DHT22;269;48.884;9.192;2023-01-08T12:07:59;10.60;99.90
569;DHT22;269;48.884;9.192;2023-01-08T12:10:33;10.60;99.90
569;DHT22;269;48.884;9.192;2023-01-08T12:13:11;10.60;99.90
569;DHT22;269;48.884;9.192;2023-01-08T12:15:52;10.60;99.90
569;DHT22;269;48.884;9.192;2023-01-08T12:18:50;10.50;99.90
569;DHT22;269;48.884;9.192;2023-01-08T12:21:29;10.40;99.90
569;DHT22;269;48.884;9.192;2023-01-08T12:24:19;10.40;99.90
569;DHT22;269;48.884;9.192;2023-01-08T12:26:55;10.40;99.90
569;DHT22;269;48.884;9.192;2023-01-08T12:29:36;10.50;99.90
569;DHT22;269;48.884;9.192;2023-01-08T12:32:25;10.50;99.90
569;DHT22;269;48.884;9.192;2023-01-08T12:35:00;10.60;99.90
569;DHT22;269;48.884;9.192;2023-01-08T12:37:33;10.50;99.90
569;DHT22;269;48.884;9.192;2023-01-08T12:40:05;10.50;99.90
569;DHT22;269;48.884;9.192;2023-01-08T12:42:40;10.50;99.90
569;DHT22;269;48.884;9.192;2023-01-08T12:45:15;10.50;99.90
569;DHT22;269;48.884;9.192;2023-01-08T12:47:47;10.50;99.90
569;DHT22;269;48.884;9.192;2023-01-08T12:50:24;10.50;99.90
569;DHT22;269;48.884;9.192;2023-01-08T12:53:01;10.50;99.90
569;DHT22;269;48.884;9.192;2023-01-08T12:55:38;10.50;99.90
569;DHT22;269;48.884;9.192;2023-01-08T12:58:18;10.50;99.90
569;DHT22;269;48.884;9.192;2023-01-08T13:00:53;10.60;99.90
569;DHT22;269;48.884;9.192;2023-01-08T13:03:24;10.60;99.90
569;DHT22;269;48.884;9.192;2023-01-08T13:05:52;10.50;99.90
569;DHT22;269;48.884;9.192;2023-01-08T13:08:33;10.50;99.90
569;DHT22;269;48.884;9.192;2023-01-08T13:11:02;10.60;99.90
569;DHT22;269;48.884;9.192;2023-01-08T13:13:31;10.60;99.90
569;DHT22;269;48.884;9.192;2023-01-08T13:16:19;10.70;99.90
569;DHT22;269;48.884;9.192;2023-01-08T13:18:54;10.70;99.90
569;DHT22;269;48.884;9.192;2023-01-08T13:21:35;10.70;99.90
569;DHT22;269;48.884;9.192;2023-01-08T13:24:20;10.70;99.90
569;DHT22;269;48.884;9.192;2023-01-08T13:26:51;10.70;99.90
569;DHT22;269;48.884;9.192;2023-01-08T13:29:24;10.60;99.90
569;DHT22;269;48.884;9.192;2023-01-08T13:31:52;10.60;99.90
569;DHT22;269;48.884;9.192;2023-01-08T13:34:21;10.60;99.90
569;DHT22;269;48.884;9.192;2023-01-08T13:36:55;10.60;99.90
569;DHT22;269;48.884;9.192;2023-01-08T13:39:31;10.60;99.90
569;DHT22;269;48.884;9.192;2023-01-08T13:42:02;10.60;99.90
569;DHT22;269;48.884;9.192;2023-01-08T13:44:33;10.60;99.90
569;DHT22;269;48.884;9.192;2023-01-08T13:47:03;10.60;99.90
569;DHT22;269;48.884;9.192;2023-01-08T13:49:34;10.60;99.90
569;DHT22;269;48.884;9.192;2023-01-08T13:52:02;10.60;99.90
569;DHT22;269;48.884;9.192;2023-01-08T13:54:33;10.50;99.90
569;DHT22;269;48.884;9.192;2023-01-08T13:57:11;10.50;99.90
569;DHT22;269;48.884;9.192;2023-01-08T13:59:40;10.50;99.90
569;DHT22;269;48.884;9.192;2023-01-08T14:02:22;10.50;99.90
569;DHT22;269;48.884;9.192;2023-01-08T14:04:51;10.60;99.90
569;DHT22;269;48.884;9.192;2023-01-08T14:07:19;10.50;99.90
569;DHT22;269;48.884;9.192;2023-01-08T14:09:47;10.60;99.90
569;DHT22;269;48.884;9.192;2023-01-08T14:12:16;10.60;99.90
569;DHT22;269;48.884;9.192;2023-01-08T14:14:48;10.70;99.90
569;DHT22;269;48.884;9.192;2023-01-08T14:17:17;10.70;99.90
569;DHT22;269;48.884;9.192;2023-01-08T14:19:44;10.70;99.90
569;DHT22;269;48.884;9.192;2023-01-08T14:22:16;10.80;99.90
569;DHT22;269;48.884;9.192;2023-01-08T14:24:44;10.80;99.90
569;DHT22;269;48.884;9.192;2023-01-08T14:27:21;10.90;99.90
569;DHT22;269;48.884;9.192;2023-01-08T14:29:48;10.90;99.90
569;DHT22;269;48.884;9.192;2023-01-08T14:32:17;10.90;99.90
569;DHT22;269;48.884;9.192;2023-01-08T14:34:46;10.90;99.90
569;DHT22;269;48.884;9.192;2023-01-08T14:37:14;10.90;99.90
569;DHT22;269;48.884;9.192;2023-01-08T14:39:43;10.80;99.90
569;DHT22;269;48.884;9.192;2023-01-08T14:42:15;10.80;99.90
569;DHT22;269;48.884;9.192;2023-01-08T14:45:04;10.80;99.90
569;DHT22;269;48.884;9.192;2023-01-08T14:47:35;10.80;99.90
569;DHT22;269;48.884;9.192;2023-01-08T14:50:04;10.80;99.90
569;DHT22;269;48.884;9.192;2023-01-08T14:52:32;10.80;99.90
569;DHT22;269;48.884;9.192;2023-01-08T14:55:02;10.80;99.90
569;DHT22;269;48.884;9.192;2023-01-08T14:57:30;10.80;99.90
569;DHT22;269;48.884;9.192;2023-01-08T14:59:59;10.80;99.90
569;DHT22;269;48.884;9.192;2023-01-08T15:02:31;10.80;99.90
569;DHT22;269;48.884;9.192;2023-01-08T15:05:13;10.80;99.90
569;DHT22;269;48.884;9.192;2023-01-08T15:07:42;10.80;99.90
569;DHT22;269;48.884;9.192;2023-01-08T15:10:31;10.70;99.90
569;DHT22;269;48.884;9.192;2023-01-08T15:12:59;10.70;99.90
569;DHT22;269;48.884;9.192;2023-01-08T15:15:29;10.70;99.90
569;DHT22;269;48.884;9.192;2023-01-08T15:17:58;10.70;99.90
569;DHT22;269;48.884;9.192;2023-01-08T15:20:28;10.70;99.90
569;DHT22;269;48.884;9.192;2023-01-08T15:22:57;10.60;99.90
569;DHT22;269;48.884;9.192;2023-01-08T15:25:26;10.60;99.90
569;DHT22;269;48.884;9.192;2023-01-08T15:27:57;10.60;99.90
569;DHT22;269;48.884;9.192;2023-01-08T15:30:28;10.50;99.90
569;DHT22;269;48.884;9.192;2023-01-08T15:33:17;10.50;99.90
569;DHT22;269;48.884;9.192;2023-01-08T15:35:45;10.50;99.90
569;DHT22;269;48.884;9.192;2023-01-08T15:38:12;10.50;99.90
569;DHT22;269;48.884;9.192;2023-01-08T15:40:39;10.40;99.90
569;DHT22;269;48.884;9.192;2023-01-08T15:43:10;10.40;99.90
569;DHT22;269;48.884;9.192;2023-01-08T15:45:38;10.30;99.90
569;DHT22;269;48.884;9.192;2023-01-08T15:48:06;10.30;99.90
569;DHT22;269;48.884;9.192;2023-01-08T15:50:36;10.20;99.90
569;DHT22;269;48.884;9.192;2023-01-08T15:53:05;10.20;99.90
569;DHT22;269;48.884;9.192;2023-01-08T15:55:33;10.20;99.90
569;DHT22;269;48.884;9.192;2023-01-08T15:58:02;10.20;99.90
569;DHT22;269;48.884;9.192;2023-01-08T16:00:30;10.30;99.90
569;DHT22;269;48.884;9.192;2023-01-08T16:02:58;10.20;99.90
569;DHT22;269;48.884;9.192;2023-01-08T16:05:27;10.20;99.90
569;DHT22;269;48.884;9.192;2023-01-08T16:07:56;10.20;99.90
569;DHT22;269;48.884;9.192;2023-01-08T16:10:23;10.20;99.90
569;DHT22;269;48.884;9.192;2023-01-08T16:12:50;10.20;99.90
569;DHT22;269;48.884;9.192;2023-01-08T16:15:17;10.20;99.90
569;DHT22;269;48.884;9.192;2023-01-08T16:17:44;10.20;99.90
569;DHT22;269;48.884;9.192;2023-01-08T16:20:13;10.20;99.90
569;DHT22;269;48.884;9.192;2023-01-08T16:22:40;10.30;99.90
569;DHT22;269;48.884;9.192;2023-01-08T16:25:09;10.30;99.90
569;DHT22;269;48.884;9.192;2023-01-08T16:27:37;10.30;99.90
569;DHT22;269;48.884;9.192;2023-01-08T16:30:06;10.30;99.90
569;DHT22;269;48.884;9.192;2023-01-08T16:32:34;10.30;99.90
569;DHT22;269;48.884;9.192;2023-01-08T16:35:01;10.30;99.90
569;DHT22;269;48.884;9.192;2023-01-08T16:37:29;10.30;99.90
569;DHT22;269;48.884;9.192;2023-01-08T16:39:56;10.30;99.90
569;DHT22;269;48.884;9.192;2023-01-08T16:42:24;10.30;99.90
569;DHT22;269;48.884;9.192;2023-01-08T16:44:51;10.30;99.90
569;DHT22;269;48.884;9.192;2023-01-08T16:47:19;10.20;99.90
569;DHT22;269;48.884;9.192;2023-01-08T16:49:45;10.20;99.90
569;DHT22;269;48.884;9.192;2023-01-08T16:52:15;10.10;99.90
569;DHT22;269;48.884;9.192;2023-01-08T16:54:43;10.10;99.90
569;DHT22;269;48.884;9.192;2023-01-08T16:57:10;10.10;99.90
569;DHT22;269;48.884;9.192;2023-01-08T16:59:38;10.10;99.90
569;DHT22;269;48.884;9.192;2023-01-08T17:02:05;10.10;99.90
569;DHT22;269;48.884;9.192;2023-01-08T17:04:32;10.10;99.90
569;DHT22;269;48.884;9.192;2023-01-08T17:07:00;10.10;99.90